Decoded Metar for KLBO ( in ) (IATA:) | Meteo·Mobile Aviation Weather
aviador You're here:

KLBO Decoded Metar

in
Report Time2019-07-22 15:55:00
UTC Time2019-07-22 15:56:10
Flight Rules ifr IFR
Wind010° at 10 Gusting to 15 kt
W.Decomp.*RWY 36: 9.8 kt HW 1.7 kt RCW
Visibility9999 m
Phenomena:N/A
Clouds:Broken 008 Hf
Overcast 014 Hf
Expected CloudBase > 400 ft AGL from Temp-Dew spread
Ceiling800 ft
Temp21°C
Dew Point20°C (94% RH)
QNH1019 hPa
Raw Report
KLBO 221555Z AUTO 01010G15KT 10SM BKN008 OVC014 21/20 A3010 RMK
AO2=

Extra information for KLBO:More info

Social comments